sensor_id;sensor_type;location;lat;lon;timestamp;P1;durP1;ratioP1;P2;durP2;ratioP2
2824;SDS011;1420;51.324;12.344;2023-03-01T00:00:17;648.50;;;612.52;;
2824;SDS011;1420;51.324;12.344;2023-03-01T00:02:44;635.67;;;598.87;;
2824;SDS011;1420;51.324;12.344;2023-03-01T00:05:11;640.05;;;604.57;;
2824;SDS011;1420;51.324;12.344;2023-03-01T00:07:38;664.68;;;626.62;;
2824;SDS011;1420;51.324;12.344;2023-03-01T00:10:06;688.50;;;649.92;;
2824;SDS011;1420;51.324;12.344;2023-03-01T00:12:33;679.45;;;641.38;;
2824;SDS011;1420;51.324;12.344;2023-03-01T00:15:00;724.62;;;683.38;;
2824;SDS011;1420;51.324;12.344;2023-03-01T00:17:28;674.15;;;635.78;;
2824;SDS011;1420;51.324;12.344;2023-03-01T00:19:56;689.43;;;650.65;;
2824;SDS011;1420;51.324;12.344;2023-03-01T00:22:23;680.92;;;642.95;;
2824;SDS011;1420;51.324;12.344;2023-03-01T00:24:51;650.22;;;613.22;;
2824;SDS011;1420;51.324;12.344;2023-03-01T00:27:18;660.85;;;623.40;;
2824;SDS011;1420;51.324;12.344;2023-03-01T00:29:46;631.73;;;596.68;;
2824;SDS011;1420;51.324;12.344;2023-03-01T00:32:13;654.10;;;617.62;;
2824;SDS011;1420;51.324;12.344;2023-03-01T00:34:40;646.33;;;610.25;;
2824;SDS011;1420;51.324;12.344;2023-03-01T00:37:07;630.97;;;595.22;;
2824;SDS011;1420;51.324;12.344;2023-03-01T00:39:35;645.92;;;609.58;;
2824;SDS011;1420;51.324;12.344;2023-03-01T00:42:03;640.33;;;604.08;;
2824;SDS011;1420;51.324;12.344;2023-03-01T00:44:30;637.43;;;602.00;;
2824;SDS011;1420;51.324;12.344;2023-03-01T00:46:57;640.40;;;604.95;;
2824;SDS011;1420;51.324;12.344;2023-03-01T00:49:25;640.35;;;604.70;;
2824;SDS011;1420;51.324;12.344;2023-03-01T00:51:53;629.07;;;594.45;;
2824;SDS011;1420;51.324;12.344;2023-03-01T00:54:20;637.12;;;601.70;;
2824;SDS011;1420;51.324;12.344;2023-03-01T00:56:47;627.40;;;593.35;;
2824;SDS011;1420;51.324;12.344;2023-03-01T00:59:15;615.70;;;581.58;;
2824;SDS011;1420;51.324;12.344;2023-03-01T01:01:42;641.25;;;605.92;;
2824;SDS011;1420;51.324;12.344;2023-03-01T01:04:11;634.98;;;599.95;;
2824;SDS011;1420;51.324;12.344;2023-03-01T01:06:38;611.07;;;577.38;;
2824;SDS011;1420;51.324;12.344;2023-03-01T01:09:06;607.98;;;575.37;;
2824;SDS011;1420;51.324;12.344;2023-03-01T01:11:33;660.57;;;624.02;;
2824;SDS011;1420;51.324;12.344;2023-03-01T01:14:00;636.45;;;601.25;;
2824;SDS011;1420;51.324;12.344;2023-03-01T01:16:27;645.92;;;609.88;;
2824;SDS011;1420;51.324;12.344;2023-03-01T01:18:55;625.12;;;589.88;;
2824;SDS011;1420;51.324;12.344;2023-03-01T01:21:23;683.93;;;645.13;;
2824;SDS011;1420;51.324;12.344;2023-03-01T01:23:50;663.30;;;625.32;;
2824;SDS011;1420;51.324;12.344;2023-03-01T01:26:19;653.20;;;616.72;;
2824;SDS011;1420;51.324;12.344;2023-03-01T01:28:45;645.28;;;608.32;;
2824;SDS011;1420;51.324;12.344;2023-03-01T01:31:13;645.10;;;609.08;;
2824;SDS011;1420;51.324;12.344;2023-03-01T01:33:40;659.23;;;622.77;;
2824;SDS011;1420;51.324;12.344;2023-03-01T01:36:07;651.17;;;615.12;;
2824;SDS011;1420;51.324;12.344;2023-03-01T01:38:35;645.72;;;608.55;;
2824;SDS011;1420;51.324;12.344;2023-03-01T01:41:02;630.03;;;594.50;;
2824;SDS011;1420;51.324;12.344;2023-03-01T01:43:32;652.77;;;615.48;;
2824;SDS011;1420;51.324;12.344;2023-03-01T01:45:59;651.48;;;614.18;;
2824;SDS011;1420;51.324;12.344;2023-03-01T01:48:32;680.20;;;641.53;;
2824;SDS011;1420;51.324;12.344;2023-03-01T01:50:58;664.67;;;627.55;;
2824;SDS011;1420;51.324;12.344;2023-03-01T01:53:23;668.37;;;630.07;;
2824;SDS011;1420;51.324;12.344;2023-03-01T01:55:52;664.18;;;626.80;;
2824;SDS011;1420;51.324;12.344;2023-03-01T01:58:19;680.92;;;642.43;;
2824;SDS011;1420;51.324;12.344;2023-03-01T02:00:46;709.30;;;669.05;;
2824;SDS011;1420;51.324;12.344;2023-03-01T02:03:16;718.17;;;676.58;;
2824;SDS011;1420;51.324;12.344;2023-03-01T02:05:46;711.58;;;671.47;;
2824;SDS011;1420;51.324;12.344;2023-03-01T02:08:15;689.12;;;650.32;;
2824;SDS011;1420;51.324;12.344;2023-03-01T02:10:41;693.47;;;654.53;;
2824;SDS011;1420;51.324;12.344;2023-03-01T02:13:09;690.32;;;651.48;;
2824;SDS011;1420;51.324;12.344;2023-03-01T02:15:38;711.63;;;671.05;;
2824;SDS011;1420;51.324;12.344;2023-03-01T02:18:05;671.53;;;633.17;;
2824;SDS011;1420;51.324;12.344;2023-03-01T02:20:35;690.62;;;651.10;;
2824;SDS011;1420;51.324;12.344;2023-03-01T02:23:01;692.62;;;653.95;;
2824;SDS011;1420;51.324;12.344;2023-03-01T02:25:31;702.73;;;663.17;;
2824;SDS011;1420;51.324;12.344;2023-03-01T02:28:21;694.47;;;654.55;;
2824;SDS011;1420;51.324;12.344;2023-03-01T02:30:47;661.18;;;623.73;;
2824;SDS011;1420;51.324;12.344;2023-03-01T02:33:19;696.30;;;655.23;;
2824;SDS011;1420;51.324;12.344;2023-03-01T02:35:46;700.40;;;660.08;;
2824;SDS011;1420;51.324;12.344;2023-03-01T02:38:14;706.58;;;665.68;;
2824;SDS011;1420;51.324;12.344;2023-03-01T02:40:41;684.48;;;645.82;;
2824;SDS011;1420;51.324;12.344;2023-03-01T02:43:08;683.78;;;645.25;;
2824;SDS011;1420;51.324;12.344;2023-03-01T02:45:35;667.03;;;629.27;;
2824;SDS011;1420;51.324;12.344;2023-03-01T02:48:03;682.42;;;644.48;;
2824;SDS011;1420;51.324;12.344;2023-03-01T02:50:41;681.68;;;643.22;;
2824;SDS011;1420;51.324;12.344;2023-03-01T02:53:08;701.40;;;661.45;;
2824;SDS011;1420;51.324;12.344;2023-03-01T02:55:54;686.03;;;646.53;;
2824;SDS011;1420;51.324;12.344;2023-03-01T02:58:21;688.02;;;649.05;;
2824;SDS011;1420;51.324;12.344;2023-03-01T03:00:48;667.22;;;630.03;;
2824;SDS011;1420;51.324;12.344;2023-03-01T03:03:17;696.50;;;657.28;;
2824;SDS011;1420;51.324;12.344;2023-03-01T03:05:44;720.50;;;679.22;;
2824;SDS011;1420;51.324;12.344;2023-03-01T03:08:11;711.85;;;670.58;;
2824;SDS011;1420;51.324;12.344;2023-03-01T03:10:39;718.85;;;677.18;;
2824;SDS011;1420;51.324;12.344;2023-03-01T03:13:06;698.85;;;658.95;;
2824;SDS011;1420;51.324;12.344;2023-03-01T03:15:33;692.08;;;652.82;;
2824;SDS011;1420;51.324;12.344;2023-03-01T03:18:01;706.98;;;665.82;;
2824;SDS011;1420;51.324;12.344;2023-03-01T03:20:28;719.28;;;677.70;;
2824;SDS011;1420;51.324;12.344;2023-03-01T03:22:56;723.47;;;681.57;;
2824;SDS011;1420;51.324;12.344;2023-03-01T03:25:22;687.65;;;647.98;;
2824;SDS011;1420;51.324;12.344;2023-03-01T03:27:50;713.10;;;672.92;;
2824;SDS011;1420;51.324;12.344;2023-03-01T03:30:20;711.30;;;670.27;;
2824;SDS011;1420;51.324;12.344;2023-03-01T03:32:47;723.83;;;682.80;;
2824;SDS011;1420;51.324;12.344;2023-03-01T03:35:24;710.68;;;669.62;;
2824;SDS011;1420;51.324;12.344;2023-03-01T03:37:49;717.85;;;675.95;;
2824;SDS011;1420;51.324;12.344;2023-03-01T03:40:22;712.63;;;671.82;;
2824;SDS011;1420;51.324;12.344;2023-03-01T03:42:49;725.87;;;683.87;;
2824;SDS011;1420;51.324;12.344;2023-03-01T03:45:17;726.47;;;684.82;;
2824;SDS011;1420;51.324;12.344;2023-03-01T03:47:45;717.43;;;675.33;;
2824;SDS011;1420;51.324;12.344;2023-03-01T03:50:13;687.50;;;647.93;;
2824;SDS011;1420;51.324;12.344;2023-03-01T03:52:39;702.25;;;662.05;;
2824;SDS011;1420;51.324;12.344;2023-03-01T03:55:07;690.17;;;650.77;;
2824;SDS011;1420;51.324;12.344;2023-03-01T03:57:35;712.35;;;670.52;;
2824;SDS011;1420;51.324;12.344;2023-03-01T04:00:02;675.50;;;637.32;;
2824;SDS011;1420;51.324;12.344;2023-03-01T04:02:30;714.18;;;673.60;;
2824;SDS011;1420;51.324;12.344;2023-03-01T04:04:57;697.78;;;657.67;;
2824;SDS011;1420;51.324;12.344;2023-03-01T04:07:24;730.72;;;688.78;;
2824;SDS011;1420;51.324;12.344;2023-03-01T04:09:51;718.62;;;675.60;;
2824;SDS011;1420;51.324;12.344;2023-03-01T04:12:19;688.50;;;649.27;;
2824;SDS011;1420;51.324;12.344;2023-03-01T04:14:47;757.72;;;711.85;;
2824;SDS011;1420;51.324;12.344;2023-03-01T04:17:14;761.40;;;716.10;;
2824;SDS011;1420;51.324;12.344;2023-03-01T04:19:41;720.10;;;677.60;;
2824;SDS011;1420;51.324;12.344;2023-03-01T04:22:09;727.48;;;683.87;;
2824;SDS011;1420;51.324;12.344;2023-03-01T04:24:36;743.30;;;698.45;;
2824;SDS011;1420;51.324;12.344;2023-03-01T04:27:03;685.73;;;643.88;;
2824;SDS011;1420;51.324;12.344;2023-03-01T04:29:31;675.58;;;635.62;;
2824;SDS011;1420;51.324;12.344;2023-03-01T04:31:59;716.55;;;674.77;;
2824;SDS011;1420;51.324;12.344;2023-03-01T04:34:26;745.70;;;702.68;;
2824;SDS011;1420;51.324;12.344;2023-03-01T04:36:53;744.72;;;698.57;;
2824;SDS011;1420;51.324;12.344;2023-03-01T04:39:20;705.28;;;663.58;;
2824;SDS011;1420;51.324;12.344;2023-03-01T04:41:48;716.52;;;674.82;;
2824;SDS011;1420;51.324;12.344;2023-03-01T04:44:16;757.83;;;711.23;;
2824;SDS011;1420;51.324;12.344;2023-03-01T04:46:43;654.57;;;613.90;;
2824;SDS011;1420;51.324;12.344;2023-03-01T04:49:11;814.03;;;765.10;;
2824;SDS011;1420;51.324;12.344;2023-03-01T04:51:38;754.90;;;709.97;;
2824;SDS011;1420;51.324;12.344;2023-03-01T04:54:06;758.87;;;713.35;;
2824;SDS011;1420;51.324;12.344;2023-03-01T04:56:33;744.50;;;699.80;;
2824;SDS011;1420;51.324;12.344;2023-03-01T04:59:00;710.87;;;666.88;;
2824;SDS011;1420;51.324;12.344;2023-03-01T05:01:27;718.35;;;674.88;;
2824;SDS011;1420;51.324;12.344;2023-03-01T05:03:55;706.05;;;662.62;;
2824;SDS011;1420;51.324;12.344;2023-03-01T05:06:23;815.28;;;764.20;;
2824;SDS011;1420;51.324;12.344;2023-03-01T05:08:50;640.08;;;602.30;;
2824;SDS011;1420;51.324;12.344;2023-03-01T05:11:17;820.83;;;769.98;;
2824;SDS011;1420;51.324;12.344;2023-03-01T05:13:45;758.10;;;711.07;;
2824;SDS011;1420;51.324;12.344;2023-03-01T05:16:13;838.48;;;786.22;;
2824;SDS011;1420;51.324;12.344;2023-03-01T05:18:41;790.43;;;740.58;;
2824;SDS011;1420;51.324;12.344;2023-03-01T05:21:10;785.48;;;739.67;;
2824;SDS011;1420;51.324;12.344;2023-03-01T05:23:35;682.93;;;641.38;;
2824;SDS011;1420;51.324;12.344;2023-03-01T05:26:03;817.15;;;765.95;;
2824;SDS011;1420;51.324;12.344;2023-03-01T05:28:31;798.53;;;748.02;;
2824;SDS011;1420;51.324;12.344;2023-03-01T05:30:58;730.55;;;686.57;;
2824;SDS011;1420;51.324;12.344;2023-03-01T05:33:26;735.62;;;691.72;;
2824;SDS011;1420;51.324;12.344;2023-03-01T05:35:53;740.88;;;696.25;;
2824;SDS011;1420;51.324;12.344;2023-03-01T05:38:21;765.65;;;720.52;;
2824;SDS011;1420;51.324;12.344;2023-03-01T05:40:48;738.70;;;695.00;;
2824;SDS011;1420;51.324;12.344;2023-03-01T05:43:16;733.68;;;689.83;;
2824;SDS011;1420;51.324;12.344;2023-03-01T05:45:42;745.52;;;700.97;;
2824;SDS011;1420;51.324;12.344;2023-03-01T05:48:10;737.57;;;693.83;;
2824;SDS011;1420;51.324;12.344;2023-03-01T05:50:40;743.80;;;699.98;;
2824;SDS011;1420;51.324;12.344;2023-03-01T05:53:09;771.90;;;725.13;;
2824;SDS011;1420;51.324;12.344;2023-03-01T05:55:34;699.05;;;656.80;;
2824;SDS011;1420;51.324;12.344;2023-03-01T05:58:02;747.48;;;702.85;;
2824;SDS011;1420;51.324;12.344;2023-03-01T06:00:29;736.33;;;692.45;;
2824;SDS011;1420;51.324;12.344;2023-03-01T06:02:57;720.73;;;678.27;;
2824;SDS011;1420;51.324;12.344;2023-03-01T06:05:24;730.93;;;687.23;;
2824;SDS011;1420;51.324;12.344;2023-03-01T06:07:52;679.05;;;639.22;;
2824;SDS011;1420;51.324;12.344;2023-03-01T06:10:19;735.52;;;692.78;;
2824;SDS011;1420;51.324;12.344;2023-03-01T06:12:46;777.23;;;731.87;;
2824;SDS011;1420;51.324;12.344;2023-03-01T06:15:14;761.87;;;716.47;;
2824;SDS011;1420;51.324;12.344;2023-03-01T06:17:41;756.88;;;712.83;;
2824;SDS011;1420;51.324;12.344;2023-03-01T06:20:10;758.35;;;713.62;;
2824;SDS011;1420;51.324;12.344;2023-03-01T06:22:38;716.77;;;673.78;;
2824;SDS011;1420;51.324;12.344;2023-03-01T06:25:05;736.50;;;693.22;;
2824;SDS011;1420;51.324;12.344;2023-03-01T06:27:33;688.12;;;648.62;;
2824;SDS011;1420;51.324;12.344;2023-03-01T06:30:00;741.08;;;698.48;;
2824;SDS011;1420;51.324;12.344;2023-03-01T06:32:28;659.97;;;621.07;;
2824;SDS011;1420;51.324;12.344;2023-03-01T06:34:55;677.60;;;637.35;;
2824;SDS011;1420;51.324;12.344;2023-03-01T06:37:22;696.47;;;655.35;;
2824;SDS011;1420;51.324;12.344;2023-03-01T06:39:49;737.00;;;693.73;;
2824;SDS011;1420;51.324;12.344;2023-03-01T06:42:17;660.27;;;623.07;;
2824;SDS011;1420;51.324;12.344;2023-03-01T06:44:45;723.08;;;680.90;;
2824;SDS011;1420;51.324;12.344;2023-03-01T06:47:12;602.70;;;569.53;;
2824;SDS011;1420;51.324;12.344;2023-03-01T06:49:39;392.13;;;370.13;;
2824;SDS011;1420;51.324;12.344;2023-03-01T06:52:07;381.18;;;360.20;;
2824;SDS011;1420;51.324;12.344;2023-03-01T06:54:34;390.08;;;368.63;;
2824;SDS011;1420;51.324;12.344;2023-03-01T06:57:02;318.97;;;300.90;;
2824;SDS011;1420;51.324;12.344;2023-03-01T06:59:29;195.23;;;182.55;;
2824;SDS011;1420;51.324;12.344;2023-03-01T07:01:57;131.20;;;120.78;;
2824;SDS011;1420;51.324;12.344;2023-03-01T07:04:24;126.57;;;115.87;;
2824;SDS011;1420;51.324;12.344;2023-03-01T07:06:52;101.55;;;91.78;;
2824;SDS011;1420;51.324;12.344;2023-03-01T07:09:19;184.38;;;171.18;;
2824;SDS011;1420;51.324;12.344;2023-03-01T07:11:47;194.05;;;180.28;;
2824;SDS011;1420;51.324;12.344;2023-03-01T07:14:15;191.48;;;178.37;;
2824;SDS011;1420;51.324;12.344;2023-03-01T07:16:42;218.13;;;204.52;;
2824;SDS011;1420;51.324;12.344;2023-03-01T07:19:09;257.05;;;241.22;;
2824;SDS011;1420;51.324;12.344;2023-03-01T07:21:36;344.82;;;325.70;;
2824;SDS011;1420;51.324;12.344;2023-03-01T07:24:05;403.68;;;381.65;;
2824;SDS011;1420;51.324;12.344;2023-03-01T07:26:32;397.75;;;376.42;;
2824;SDS011;1420;51.324;12.344;2023-03-01T07:29:00;946.67;;;876.03;;
2824;SDS011;1420;51.324;12.344;2023-03-01T07:31:28;455.12;;;430.93;;
2824;SDS011;1420;51.324;12.344;2023-03-01T07:33:55;528.72;;;501.05;;
2824;SDS011;1420;51.324;12.344;2023-03-01T07:36:22;560.68;;;530.80;;
2824;SDS011;1420;51.324;12.344;2023-03-01T07:38:49;534.53;;;505.80;;
2824;SDS011;1420;51.324;12.344;2023-03-01T07:41:17;474.35;;;449.02;;
2824;SDS011;1420;51.324;12.344;2023-03-01T07:43:44;650.27;;;614.92;;
2824;SDS011;1420;51.324;12.344;2023-03-01T07:46:12;558.54;;;528.90;;
2824;SDS011;1420;51.324;12.344;2023-03-01T07:48:39;516.52;;;489.07;;
2824;SDS011;1420;51.324;12.344;2023-03-01T07:51:06;596.72;;;564.34;;
2824;SDS011;1420;51.324;12.344;2023-03-01T07:53:34;630.78;;;597.62;;
2824;SDS011;1420;51.324;12.344;2023-03-01T07:56:02;571.53;;;540.67;;
2824;SDS011;1420;51.324;12.344;2023-03-01T07:58:29;553.88;;;524.77;;
2824;SDS011;1420;51.324;12.344;2023-03-01T08:01:00;377.70;;;357.50;;
2824;SDS011;1420;51.324;12.344;2023-03-01T08:03:24;424.64;;;402.88;;
2824;SDS011;1420;51.324;12.344;2023-03-01T08:05:52;531.02;;;502.76;;
2824;SDS011;1420;51.324;12.344;2023-03-01T08:08:20;432.22;;;409.86;;
2824;SDS011;1420;51.324;12.344;2023-03-01T08:10:47;443.62;;;421.04;;
2824;SDS011;1420;51.324;12.344;2023-03-01T08:13:14;467.18;;;442.60;;
2824;SDS011;1420;51.324;12.344;2023-03-01T08:15:41;443.66;;;420.30;;
2824;SDS011;1420;51.324;12.344;2023-03-01T08:18:09;502.42;;;475.58;;
2824;SDS011;1420;51.324;12.344;2023-03-01T08:20:37;730.74;;;690.30;;
2824;SDS011;1420;51.324;12.344;2023-03-01T08:23:05;713.58;;;673.74;;
2824;SDS011;1420;51.324;12.344;2023-03-01T08:25:33;603.13;;;569.82;;
2824;SDS011;1420;51.324;12.344;2023-03-01T08:28:00;561.40;;;530.98;;
2824;SDS011;1420;51.324;12.344;2023-03-01T08:30:28;584.88;;;553.28;;
2824;SDS011;1420;51.324;12.344;2023-03-01T08:32:55;546.24;;;517.80;;
2824;SDS011;1420;51.324;12.344;2023-03-01T08:35:22;468.54;;;443.78;;
2824;SDS011;1420;51.324;12.344;2023-03-01T08:37:49;434.78;;;411.16;;
2824;SDS011;1420;51.324;12.344;2023-03-01T08:40:16;599.02;;;567.30;;
2824;SDS011;1420;51.324;12.344;2023-03-01T08:42:44;512.38;;;485.58;;
2824;SDS011;1420;51.324;12.344;2023-03-01T08:45:11;751.80;;;708.28;;
2824;SDS011;1420;51.324;12.344;2023-03-01T08:47:38;644.13;;;608.53;;
2824;SDS011;1420;51.324;12.344;2023-03-01T08:50:05;653.68;;;618.24;;
2824;SDS011;1420;51.324;12.344;2023-03-01T08:52:33;697.40;;;658.98;;
2824;SDS011;1420;51.324;12.344;2023-03-01T08:55:01;647.02;;;612.12;;
2824;SDS011;1420;51.324;12.344;2023-03-01T08:57:28;693.72;;;654.52;;
2824;SDS011;1420;51.324;12.344;2023-03-01T08:59:55;668.64;;;630.68;;
2824;SDS011;1420;51.324;12.344;2023-03-01T09:02:23;651.16;;;615.26;;
2824;SDS011;1420;51.324;12.344;2023-03-01T09:04:51;750.03;;;707.12;;
2824;SDS011;1420;51.324;12.344;2023-03-01T09:07:18;707.98;;;668.05;;
2824;SDS011;1420;51.324;12.344;2023-03-01T09:09:45;832.05;;;775.92;;
2824;SDS011;1420;51.324;12.344;2023-03-01T09:12:13;673.35;;;636.40;;
2824;SDS011;1420;51.324;12.344;2023-03-01T09:14:40;689.95;;;651.20;;
2824;SDS011;1420;51.324;12.344;2023-03-01T09:17:08;646.65;;;612.38;;
2824;SDS011;1420;51.324;12.344;2023-03-01T09:19:35;736.28;;;692.68;;
2824;SDS011;1420;51.324;12.344;2023-03-01T09:22:03;653.07;;;616.83;;
2824;SDS011;1420;51.324;12.344;2023-03-01T09:24:31;628.33;;;594.35;;
2824;SDS011;1420;51.324;12.344;2023-03-01T09:26:58;778.18;;;730.48;;
2824;SDS011;1420;51.324;12.344;2023-03-01T09:29:25;737.43;;;695.35;;
2824;SDS011;1420;51.324;12.344;2023-03-01T09:31:54;859.45;;;806.98;;
2824;SDS011;1420;51.324;12.344;2023-03-01T09:34:21;756.55;;;711.98;;
2824;SDS011;1420;51.324;12.344;2023-03-01T09:36:50;645.68;;;609.97;;
2824;SDS011;1420;51.324;12.344;2023-03-01T09:39:17;657.97;;;619.92;;
2824;SDS011;1420;51.324;12.344;2023-03-01T09:41:53;697.92;;;658.78;;
2824;SDS011;1420;51.324;12.344;2023-03-01T09:44:26;582.92;;;552.48;;
2824;SDS011;1420;51.324;12.344;2023-03-01T09:47:02;598.62;;;566.77;;
2824;SDS011;1420;51.324;12.344;2023-03-01T09:49:30;609.60;;;576.92;;
2824;SDS011;1420;51.324;12.344;2023-03-01T09:51:59;576.58;;;545.45;;
2824;SDS011;1420;51.324;12.344;2023-03-01T09:54:30;672.93;;;636.35;;
2824;SDS011;1420;51.324;12.344;2023-03-01T09:57:05;627.23;;;593.00;;
2824;SDS011;1420;51.324;12.344;2023-03-01T09:59:35;812.57;;;762.85;;
2824;SDS011;1420;51.324;12.344;2023-03-01T10:02:14;835.90;;;785.35;;
2824;SDS011;1420;51.324;12.344;2023-03-01T10:04:47;770.15;;;725.45;;
2824;SDS011;1420;51.324;12.344;2023-03-01T10:07:20;629.18;;;595.63;;
2824;SDS011;1420;51.324;12.344;2023-03-01T10:09:48;608.30;;;576.25;;
2824;SDS011;1420;51.324;12.344;2023-03-01T10:12:16;624.12;;;590.32;;
2824;SDS011;1420;51.324;12.344;2023-03-01T10:14:48;611.68;;;578.72;;
2824;SDS011;1420;51.324;12.344;2023-03-01T10:17:24;458.98;;;434.70;;
2824;SDS011;1420;51.324;12.344;2023-03-01T10:19:52;511.82;;;485.55;;
2824;SDS011;1420;51.324;12.344;2023-03-01T10:22:20;675.18;;;638.06;;
2824;SDS011;1420;51.324;12.344;2023-03-01T10:24:48;734.17;;;692.97;;
2824;SDS011;1420;51.324;12.344;2023-03-01T10:27:25;792.28;;;745.20;;
2824;SDS011;1420;51.324;12.344;2023-03-01T10:30:01;688.93;;;650.32;;
2824;SDS011;1420;51.324;12.344;2023-03-01T10:32:28;717.30;;;676.35;;
2824;SDS011;1420;51.324;12.344;2023-03-01T10:34:55;756.87;;;712.87;;
2824;SDS011;1420;51.324;12.344;2023-03-01T10:37:23;803.27;;;755.38;;
2824;SDS011;1420;51.324;12.344;2023-03-01T10:40:02;931.55;;;867.88;;
2824;SDS011;1420;51.324;12.344;2023-03-01T10:42:32;761.25;;;716.25;;
2824;SDS011;1420;51.324;12.344;2023-03-01T10:45:16;832.73;;;772.70;;
2824;SDS011;1420;51.324;12.344;2023-03-01T10:47:35;827.58;;;775.52;;
2824;SDS011;1420;51.324;12.344;2023-03-01T10:50:03;741.03;;;698.08;;
2824;SDS011;1420;51.324;12.344;2023-03-01T10:52:34;831.37;;;779.73;;
2824;SDS011;1420;51.324;12.344;2023-03-01T10:55:02;759.65;;;714.35;;
2824;SDS011;1420;51.324;12.344;2023-03-01T10:57:30;786.53;;;733.87;;
2824;SDS011;1420;51.324;12.344;2023-03-01T11:00:14;721.98;;;680.03;;
2824;SDS011;1420;51.324;12.344;2023-03-01T11:02:39;717.93;;;677.23;;
2824;SDS011;1420;51.324;12.344;2023-03-01T11:05:16;749.45;;;706.27;;
2824;SDS011;1420;51.324;12.344;2023-03-01T11:07:46;755.68;;;711.95;;
2824;SDS011;1420;51.324;12.344;2023-03-01T11:10:16;767.02;;;722.67;;
2824;SDS011;1420;51.324;12.344;2023-03-01T11:12:40;715.82;;;675.28;;
2824;SDS011;1420;51.324;12.344;2023-03-01T11:15:08;604.17;;;572.53;;
2824;SDS011;1420;51.324;12.344;2023-03-01T11:17:35;743.63;;;700.50;;
2824;SDS011;1420;51.324;12.344;2023-03-01T11:20:13;1053.32;;;965.32;;
2824;SDS011;1420;51.324;12.344;2023-03-01T11:22:36;759.38;;;715.32;;
2824;SDS011;1420;51.324;12.344;2023-03-01T11:25:03;809.43;;;762.02;;
2824;SDS011;1420;51.324;12.344;2023-03-01T11:27:32;901.28;;;823.67;;
2824;SDS011;1420;51.324;12.344;2023-03-01T11:30:02;758.73;;;714.75;;
2824;SDS011;1420;51.324;12.344;2023-03-01T11:32:31;739.73;;;695.33;;
2824;SDS011;1420;51.324;12.344;2023-03-01T11:34:57;858.68;;;800.10;;
2824;SDS011;1420;51.324;12.344;2023-03-01T11:37:32;690.30;;;650.02;;
2824;SDS011;1420;51.324;12.344;2023-03-01T11:40:05;874.67;;;817.02;;
2824;SDS011;1420;51.324;12.344;2023-03-01T11:42:39;736.03;;;692.42;;
2824;SDS011;1420;51.324;12.344;2023-03-01T11:45:10;1062.07;;;956.07;;
2824;SDS011;1420;51.324;12.344;2023-03-01T11:47:49;752.52;;;707.97;;
2824;SDS011;1420;51.324;12.344;2023-03-01T11:50:19;834.33;;;781.62;;
2824;SDS011;1420;51.324;12.344;2023-03-01T11:53:57;724.38;;;681.58;;
2824;SDS011;1420;51.324;12.344;2023-03-01T11:55:58;917.37;;;848.02;;
2824;SDS011;1420;51.324;12.344;2023-03-01T11:58:36;707.17;;;664.22;;
2824;SDS011;1420;51.324;12.344;2023-03-01T12:01:14;956.68;;;880.60;;
2824;SDS011;1420;51.324;12.344;2023-03-01T12:03:45;699.20;;;657.72;;
2824;SDS011;1420;51.324;12.344;2023-03-01T12:06:28;773.28;;;724.00;;
2824;SDS011;1420;51.324;12.344;2023-03-01T12:11:47;996.50;;;914.38;;
2824;SDS011;1420;51.324;12.344;2023-03-01T12:14:17;740.57;;;696.20;;
2824;SDS011;1420;51.324;12.344;2023-03-01T12:16:56;794.52;;;742.65;;
2824;SDS011;1420;51.324;12.344;2023-03-01T12:19:32;763.13;;;717.35;;
2824;SDS011;1420;51.324;12.344;2023-03-01T12:22:38;868.15;;;807.10;;
2824;SDS011;1420;51.324;12.344;2023-03-01T12:25:10;783.23;;;723.68;;
2824;SDS011;1420;51.324;12.344;2023-03-01T12:27:45;663.47;;;620.72;;
2824;SDS011;1420;51.324;12.344;2023-03-01T12:30:26;720.77;;;674.63;;
2824;SDS011;1420;51.324;12.344;2023-03-01T12:35:50;656.65;;;610.87;;
2824;SDS011;1420;51.324;12.344;2023-03-01T12:38:56;666.13;;;624.78;;
2824;SDS011;1420;51.324;12.344;2023-03-01T12:43:58;729.50;;;664.65;;
2824;SDS011;1420;51.324;12.344;2023-03-01T12:46:46;1230.35;;;711.35;;
2824;SDS011;1420;51.324;12.344;2023-03-01T12:49:17;654.15;;;611.97;;
2824;SDS011;1420;51.324;12.344;2023-03-01T12:51:49;701.33;;;655.23;;
2824;SDS011;1420;51.324;12.344;2023-03-01T12:54:23;1571.32;;;868.62;;
2824;SDS011;1420;51.324;12.344;2023-03-01T12:56:48;646.68;;;592.42;;
2824;SDS011;1420;51.324;12.344;2023-03-01T12:59:18;736.53;;;668.45;;
2824;SDS011;1420;51.324;12.344;2023-03-01T13:01:51;761.18;;;714.55;;
2824;SDS011;1420;51.324;12.344;2023-03-01T13:04:52;708.67;;;667.27;;
2824;SDS011;1420;51.324;12.344;2023-03-01T13:07:29;739.08;;;692.60;;
2824;SDS011;1420;51.324;12.344;2023-03-01T13:12:51;707.02;;;664.62;;
2824;SDS011;1420;51.324;12.344;2023-03-01T13:15:25;741.60;;;698.93;;
2824;SDS011;1420;51.324;12.344;2023-03-01T13:17:55;711.08;;;668.70;;
2824;SDS011;1420;51.324;12.344;2023-03-01T13:20:31;754.25;;;708.25;;
2824;SDS011;1420;51.324;12.344;2023-03-01T13:23:04;746.20;;;701.87;;
2824;SDS011;1420;51.324;12.344;2023-03-01T13:25:32;781.47;;;734.12;;
2824;SDS011;1420;51.324;12.344;2023-03-01T13:30:39;686.25;;;645.72;;
2824;SDS011;1420;51.324;12.344;2023-03-01T13:35:46;780.30;;;724.58;;
2824;SDS011;1420;51.324;12.344;2023-03-01T13:40:57;698.95;;;658.65;;
2824;SDS011;1420;51.324;12.344;2023-03-01T13:43:27;744.73;;;697.45;;
2824;SDS011;1420;51.324;12.344;2023-03-01T13:45:54;751.32;;;708.08;;
2824;SDS011;1420;51.324;12.344;2023-03-01T13:48:22;654.67;;;567.45;;
2824;SDS011;1420;51.324;12.344;2023-03-01T13:50:51;638.37;;;582.03;;
2824;SDS011;1420;51.324;12.344;2023-03-01T13:53:18;721.92;;;679.67;;
2824;SDS011;1420;51.324;12.344;2023-03-01T13:55:46;812.38;;;757.67;;
2824;SDS011;1420;51.324;12.344;2023-03-01T13:58:19;642.67;;;603.18;;
2824;SDS011;1420;51.324;12.344;2023-03-01T14:00:45;763.10;;;716.92;;
2824;SDS011;1420;51.324;12.344;2023-03-01T14:03:14;701.60;;;657.70;;
2824;SDS011;1420;51.324;12.344;2023-03-01T14:05:42;670.28;;;627.37;;
2824;SDS011;1420;51.324;12.344;2023-03-01T14:10:48;693.35;;;652.38;;
2824;SDS011;1420;51.324;12.344;2023-03-01T14:13:17;724.87;;;669.10;;
2824;SDS011;1420;51.324;12.344;2023-03-01T14:15:42;591.33;;;555.92;;
2824;SDS011;1420;51.324;12.344;2023-03-01T14:20:51;661.88;;;622.32;;
2824;SDS011;1420;51.324;12.344;2023-03-01T14:23:20;666.35;;;627.63;;
2824;SDS011;1420;51.324;12.344;2023-03-01T14:25:48;664.55;;;625.63;;
2824;SDS011;1420;51.324;12.344;2023-03-01T14:28:21;465.22;;;431.82;;
2824;SDS011;1420;51.324;12.344;2023-03-01T14:30:50;673.20;;;634.65;;
2824;SDS011;1420;51.324;12.344;2023-03-01T14:33:23;734.20;;;688.65;;
2824;SDS011;1420;51.324;12.344;2023-03-01T14:35:52;469.63;;;438.87;;
2824;SDS011;1420;51.324;12.344;2023-03-01T14:38:22;1999.90;;;999.90;;
2824;SDS011;1420;51.324;12.344;2023-03-01T14:40:50;1999.90;;;999.90;;
2824;SDS011;1420;51.324;12.344;2023-03-01T14:43:17;1999.90;;;999.90;;